createdAt,value
2022-10-24T00:02:34.246Z,14.65
2022-10-24T00:05:24.093Z,14.58
2022-10-24T00:08:12.611Z,14.58
2022-10-24T00:11:01.007Z,14.33
2022-10-24T00:13:50.314Z,14.61
2022-10-24T00:16:38.773Z,14.58
2022-10-24T00:19:27.344Z,14.55
2022-10-24T00:22:17.128Z,14.47
2022-10-24T00:25:06.271Z,14.40
2022-10-24T00:27:54.676Z,14.32
2022-10-24T00:30:43.183Z,14.20
2022-10-24T00:33:31.773Z,14.43
2022-10-24T00:36:22.397Z,14.40
2022-10-24T00:39:13.448Z,14.49
2022-10-24T00:42:01.850Z,14.42
2022-10-24T00:44:52.272Z,14.40
2022-10-24T00:47:40.677Z,14.40
2022-10-24T00:50:29.833Z,14.37
2022-10-24T00:53:18.483Z,14.37
2022-10-24T00:56:08.933Z,14.38
2022-10-24T00:58:58.651Z,14.31
2022-10-24T01:01:47.494Z,14.24
2022-10-24T01:04:36.070Z,14.17
2022-10-24T01:07:39.174Z,14.22
2022-10-24T01:10:39.569Z,14.03
2022-10-24T01:13:36.174Z,14.40
2022-10-24T01:16:29.286Z,14.32
2022-10-24T01:19:38.727Z,14.31
2022-10-24T01:22:30.736Z,14.32
2022-10-24T01:25:24.560Z,14.34
2022-10-24T01:28:14.421Z,14.23
2022-10-24T01:31:07.276Z,14.22
2022-10-24T01:34:00.308Z,14.13
2022-10-24T01:36:52.424Z,14.14
2022-10-24T01:39:44.770Z,14.12
2022-10-24T01:42:34.064Z,14.00
2022-10-24T01:45:26.533Z,14.15
2022-10-24T01:48:19.870Z,14.16
2022-10-24T01:51:09.390Z,14.25
2022-10-24T01:53:58.105Z,14.33
2022-10-24T01:56:46.588Z,14.19
2022-10-24T01:59:43.832Z,14.32
2022-10-24T02:02:35.991Z,14.29
2022-10-24T02:05:29.924Z,14.23
2022-10-24T02:08:20.652Z,14.21
2022-10-24T02:11:10.051Z,14.16
2022-10-24T02:14:02.612Z,13.97
2022-10-24T02:16:51.144Z,14.11
2022-10-24T02:19:39.585Z,14.13
2022-10-24T02:22:31.830Z,14.17
2022-10-24T02:25:25.866Z,14.26
2022-10-24T02:28:17.457Z,14.26
2022-10-24T02:31:10.119Z,14.16
2022-10-24T02:33:58.728Z,14.33
2022-10-24T02:36:49.120Z,14.26
2022-10-24T02:39:40.080Z,14.37
2022-10-24T02:45:20.212Z,14.44
2022-10-24T02:48:11.262Z,14.60
2022-10-24T02:51:00.051Z,14.60
2022-10-24T02:53:48.654Z,14.63
2022-10-24T02:56:40.439Z,14.66
2022-10-24T02:59:28.925Z,14.69
2022-10-24T03:02:17.459Z,14.72
2022-10-24T03:05:06.470Z,14.74
2022-10-24T03:07:54.901Z,14.80
2022-10-24T03:10:43.344Z,14.85
2022-10-24T03:13:33.179Z,15.03
2022-10-24T03:16:21.626Z,14.95
2022-10-24T03:19:10.044Z,14.92
2022-10-24T03:21:58.466Z,14.83
2022-10-24T03:24:55.148Z,14.84
2022-10-24T03:27:44.102Z,14.75
2022-10-24T03:30:34.142Z,14.71
2022-10-24T03:33:22.777Z,14.73
2022-10-24T03:36:11.207Z,14.68
2022-10-24T03:38:59.624Z,14.66
2022-10-24T03:41:48.033Z,14.41
2022-10-24T03:44:36.442Z,14.58
2022-10-24T03:47:26.215Z,14.56
2022-10-24T03:50:14.644Z,14.49
2022-10-24T03:53:03.079Z,14.48
2022-10-24T03:55:51.783Z,14.36
2022-10-24T03:58:40.249Z,14.39
2022-10-24T04:01:28.929Z,14.20
2022-10-24T04:04:18.833Z,14.32
2022-10-24T04:07:07.266Z,14.29
2022-10-24T04:09:55.648Z,14.29
2022-10-24T04:12:44.071Z,14.26
2022-10-24T04:15:32.484Z,14.28
2022-10-24T04:18:20.894Z,14.23
2022-10-24T04:21:10.701Z,13.99
2022-10-24T04:23:59.538Z,14.07
2022-10-24T04:26:47.974Z,14.16
2022-10-24T04:29:36.543Z,14.14
2022-10-24T04:32:24.964Z,14.18
2022-10-24T04:35:14.105Z,14.18
2022-10-24T04:38:03.944Z,14.17
2022-10-24T04:40:53.492Z,14.12
2022-10-24T04:43:41.898Z,14.20
2022-10-24T04:46:30.401Z,14.27
2022-10-24T04:49:18.945Z,14.26
2022-10-24T04:52:07.449Z,14.34
2022-10-24T04:54:57.218Z,14.27
2022-10-24T04:57:45.929Z,14.23
2022-10-24T05:00:34.464Z,14.27
2022-10-24T05:03:23.243Z,14.37
2022-10-24T05:06:11.742Z,14.60
2022-10-24T05:09:00.175Z,14.56
2022-10-24T05:11:49.907Z,14.54
2022-10-24T05:14:38.605Z,14.02
2022-10-24T05:17:27.067Z,14.29
2022-10-24T05:20:16.687Z,14.47
2022-10-24T05:23:05.128Z,14.49
2022-10-24T05:25:53.580Z,14.48
2022-10-24T05:28:43.329Z,14.50
2022-10-24T05:34:25.272Z,14.51
2022-10-24T05:37:13.833Z,14.37
2022-10-24T05:40:02.243Z,14.54
2022-10-24T05:42:52.180Z,14.55
2022-10-24T05:45:41.989Z,14.49
2022-10-24T05:48:30.435Z,14.63
2022-10-24T05:51:18.876Z,14.63
2022-10-24T05:54:07.340Z,14.67
2022-10-24T05:56:55.780Z,14.77
2022-10-24T05:59:44.212Z,14.70
2022-10-24T06:02:34.109Z,14.83
2022-10-24T06:05:22.749Z,15.08
2022-10-24T06:08:11.682Z,15.05
2022-10-24T06:11:00.115Z,15.00
2022-10-24T06:13:48.532Z,15.09
2022-10-24T06:16:37.359Z,15.14
2022-10-24T06:19:27.116Z,15.22
2022-10-24T06:22:15.627Z,15.18
2022-10-24T06:25:04.014Z,15.28
2022-10-24T06:27:52.594Z,15.21
2022-10-24T06:30:42.368Z,15.14
2022-10-24T06:33:30.920Z,15.37
2022-10-24T06:36:21.027Z,15.41
2022-10-24T06:39:09.488Z,15.42
2022-10-24T06:41:57.958Z,15.42
2022-10-24T06:44:46.380Z,15.45
2022-10-24T06:47:34.901Z,15.40
2022-10-24T06:50:23.348Z,15.24
2022-10-24T06:53:13.176Z,15.39
2022-10-24T06:56:01.924Z,15.40
2022-10-24T06:58:50.380Z,15.41
2022-10-24T07:01:38.924Z,15.42
2022-10-24T07:04:28.353Z,15.06
2022-10-24T07:07:17.784Z,15.61
2022-10-24T07:10:09.076Z,15.43
2022-10-24T07:12:57.507Z,15.38
2022-10-24T07:15:45.941Z,15.38
2022-10-24T07:18:34.593Z,15.31
2022-10-24T07:21:25.022Z,15.36
2022-10-24T07:24:13.656Z,15.41
2022-10-24T07:27:03.444Z,15.40
2022-10-24T07:29:52.365Z,15.45
2022-10-24T07:32:40.820Z,15.53
2022-10-24T07:35:29.312Z,15.49
2022-10-24T07:38:18.886Z,15.53
2022-10-24T07:41:07.598Z,15.50
2022-10-24T07:43:58.200Z,15.61
2022-10-24T07:46:46.742Z,15.64
2022-10-24T07:49:35.327Z,15.73
2022-10-24T07:52:23.771Z,15.71
2022-10-24T07:55:12.304Z,15.74
2022-10-24T07:58:00.729Z,15.70
2022-10-24T08:00:50.532Z,15.68
2022-10-24T08:03:39.064Z,15.69
2022-10-24T08:06:30.800Z,15.71
2022-10-24T08:09:20.335Z,15.75
2022-10-24T08:12:08.959Z,15.77
2022-10-24T08:14:57.652Z,15.86
2022-10-24T08:17:47.518Z,15.94
2022-10-24T08:20:36.044Z,16.02
2022-10-24T08:23:25.451Z,16.08
2022-10-24T08:26:17.049Z,16.13
2022-10-24T08:29:10.770Z,16.17
2022-10-24T08:31:59.215Z,16.25
2022-10-24T08:34:49.046Z,16.33
2022-10-24T08:37:38.622Z,16.20
2022-10-24T08:40:27.171Z,16.33
2022-10-24T08:43:15.956Z,16.25
2022-10-24T08:46:11.880Z,16.23
2022-10-24T08:49:04.648Z,16.26
2022-10-24T08:51:57.487Z,16.23
2022-10-24T08:54:46.898Z,16.19
2022-10-24T08:57:35.608Z,16.26
2022-10-24T09:00:26.028Z,16.28
2022-10-24T09:03:31.282Z,16.30
2022-10-24T09:06:28.203Z,16.24
2022-10-24T09:09:22.515Z,16.38
2022-10-24T09:12:14.394Z,16.44
2022-10-24T09:15:02.851Z,16.51
2022-10-24T09:17:51.521Z,16.45
2022-10-24T09:20:39.965Z,16.61
2022-10-24T09:23:28.873Z,16.57
2022-10-24T09:26:25.659Z,16.75
2022-10-24T09:29:14.128Z,16.83
2022-10-24T09:32:03.214Z,16.84
2022-10-24T09:34:51.715Z,16.90
2022-10-24T09:37:44.311Z,16.93
2022-10-24T09:40:35.673Z,16.98
2022-10-24T09:43:35.382Z,17.01
2022-10-24T09:46:25.316Z,17.05
2022-10-24T09:49:22.456Z,16.85
2022-10-24T09:52:20.596Z,17.15
2022-10-24T09:55:18.097Z,17.21
2022-10-24T09:58:06.650Z,17.23
2022-10-24T10:01:04.804Z,17.31
2022-10-24T10:04:07.593Z,17.20
2022-10-24T10:06:57.553Z,17.38
2022-10-24T10:09:55.632Z,17.43
2022-10-24T10:12:46.730Z,17.54
2022-10-24T10:15:37.942Z,17.50
2022-10-24T10:18:34.006Z,17.58
2022-10-24T10:21:23.203Z,17.50
2022-10-24T10:24:25.383Z,17.58
2022-10-24T10:27:30.236Z,17.59
2022-10-24T10:30:22.410Z,17.63
2022-10-24T10:33:17.989Z,17.75
2022-10-24T10:36:12.757Z,17.86
2022-10-24T10:39:16.513Z,17.80
2022-10-24T10:42:09.124Z,17.98
2022-10-24T10:45:10.016Z,17.96
2022-10-24T10:48:08.570Z,18.02
2022-10-24T10:51:02.236Z,18.07
2022-10-24T10:54:00.607Z,18.22
2022-10-24T10:56:53.618Z,18.41
2022-10-24T10:59:49.064Z,18.49
2022-10-24T11:02:57.867Z,18.57
2022-10-24T11:05:54.616Z,18.64
2022-10-24T11:08:57.131Z,18.68
2022-10-24T11:11:49.958Z,18.67
2022-10-24T11:14:41.012Z,18.60
2022-10-24T11:17:33.500Z,18.75
2022-10-24T11:20:26.339Z,18.83
2022-10-24T11:23:19.647Z,18.89
2022-10-24T11:26:11.784Z,19.06
2022-10-24T11:29:05.216Z,19.14
2022-10-24T11:31:56.762Z,18.51
2022-10-24T11:34:50.551Z,19.26
2022-10-24T11:37:41.099Z,19.39
2022-10-24T11:40:31.082Z,19.49
2022-10-24T11:43:22.758Z,19.63
2022-10-24T11:46:15.657Z,19.69
2022-10-24T11:49:10.457Z,19.65
2022-10-24T11:52:05.456Z,19.69
2022-10-24T11:54:57.573Z,19.68
2022-10-24T11:57:47.804Z,19.60
2022-10-24T12:00:45.302Z,19.61
2022-10-24T12:03:57.599Z,19.72
2022-10-24T12:07:01.364Z,19.78
2022-10-24T12:10:05.530Z,19.89
2022-10-24T12:13:21.768Z,19.92
2022-10-24T12:16:15.096Z,19.84
2022-10-24T12:19:06.628Z,19.83
2022-10-24T12:21:56.298Z,19.59
2022-10-24T12:24:45.133Z,19.85
2022-10-24T12:27:37.270Z,20.01
2022-10-24T12:30:27.499Z,20.20
2022-10-24T12:33:26.633Z,20.36
2022-10-24T12:36:17.248Z,20.49
2022-10-24T12:39:05.952Z,20.48
2022-10-24T12:41:55.846Z,20.63
2022-10-24T12:44:47.325Z,20.60
2022-10-24T12:47:45.436Z,20.59
2022-10-24T12:50:58.691Z,20.76
2022-10-24T12:54:21.229Z,20.91
2022-10-24T12:57:23.882Z,21.00
2022-10-24T13:00:24.360Z,21.10
2022-10-24T13:03:17.581Z,21.10
2022-10-24T13:06:08.673Z,21.26
2022-10-24T13:09:12.689Z,21.33
2022-10-24T13:12:10.954Z,21.24
2022-10-24T13:15:15.357Z,21.34
2022-10-24T13:18:15.170Z,21.40
2022-10-24T13:21:16.528Z,21.45
2022-10-24T13:24:21.081Z,21.39
2022-10-24T13:27:24.983Z,21.37
2022-10-24T13:30:34.732Z,21.37
2022-10-24T13:33:41.504Z,21.29
2022-10-24T13:36:32.485Z,21.42
2022-10-24T13:39:25.008Z,21.44
2022-10-24T13:42:24.660Z,21.50
2022-10-24T13:45:26.249Z,21.63
2022-10-24T13:48:19.187Z,21.68
2022-10-24T13:51:14.001Z,21.74
2022-10-24T13:54:08.230Z,21.59
2022-10-24T13:57:01.266Z,21.59
2022-10-24T13:59:55.693Z,20.65
2022-10-24T14:02:44.537Z,21.21
2022-10-24T14:05:36.223Z,21.15
2022-10-24T14:08:27.587Z,21.00
2022-10-24T14:11:21.130Z,21.06
2022-10-24T14:14:27.488Z,20.92
2022-10-24T14:17:23.579Z,20.78
2022-10-24T14:20:22.063Z,20.63
2022-10-24T14:23:24.572Z,20.61
2022-10-24T14:26:16.620Z,20.56
2022-10-24T14:29:05.088Z,20.60
2022-10-24T14:31:57.867Z,20.61
2022-10-24T14:34:48.283Z,20.64
2022-10-24T14:37:37.712Z,20.74
2022-10-24T14:40:26.302Z,20.86
2022-10-24T14:43:16.959Z,20.76
2022-10-24T14:46:28.538Z,20.88
2022-10-24T14:49:23.242Z,20.74
2022-10-24T14:52:13.892Z,20.73
2022-10-24T14:55:04.675Z,20.59
2022-10-24T14:57:54.131Z,20.46
2022-10-24T15:00:42.651Z,20.42
2022-10-24T15:03:31.145Z,20.37
2022-10-24T15:06:24.963Z,20.39
2022-10-24T15:09:17.786Z,20.38
2022-10-24T15:12:13.474Z,20.29
2022-10-24T15:15:24.724Z,20.32
2022-10-24T15:18:19.947Z,20.22
2022-10-24T15:21:14.156Z,20.28
2022-10-24T15:24:04.512Z,20.15
2022-10-24T15:26:53.126Z,20.03
2022-10-24T15:29:41.829Z,20.01
2022-10-24T15:32:30.540Z,19.89
2022-10-24T15:35:19.399Z,19.82
2022-10-24T15:38:14.941Z,19.85
2022-10-24T15:41:04.846Z,19.68
2022-10-24T15:43:53.360Z,19.73
2022-10-24T15:46:41.800Z,19.68
2022-10-24T15:49:31.418Z,19.63
2022-10-24T15:52:19.948Z,19.62
2022-10-24T15:55:12.837Z,19.56
2022-10-24T15:58:03.125Z,19.49
2022-10-24T16:00:51.752Z,19.44
2022-10-24T16:03:40.224Z,19.31
2022-10-24T16:06:29.282Z,19.26
2022-10-24T16:09:19.977Z,19.20
2022-10-24T16:12:08.814Z,19.10
2022-10-24T16:14:58.654Z,18.97
2022-10-24T16:17:47.347Z,18.86
2022-10-24T16:20:36.043Z,18.76
2022-10-24T16:23:24.879Z,18.56
2022-10-24T16:26:13.320Z,18.54
2022-10-24T16:29:01.820Z,18.44
2022-10-24T16:31:51.872Z,18.32
2022-10-24T16:34:40.329Z,18.15
2022-10-24T16:37:28.808Z,18.07
2022-10-24T16:40:17.956Z,17.97
2022-10-24T16:43:06.731Z,17.90
2022-10-24T16:45:59.227Z,17.81
2022-10-24T16:48:49.228Z,17.71
2022-10-24T16:51:41.735Z,17.68
2022-10-24T16:54:32.521Z,17.62
2022-10-24T16:57:21.337Z,17.61
2022-10-24T17:00:14.176Z,17.53
2022-10-24T17:03:02.605Z,17.47
2022-10-24T17:05:52.807Z,17.42
2022-10-24T17:08:41.271Z,17.31
2022-10-24T17:11:44.777Z,17.25
2022-10-24T17:14:36.311Z,16.96
2022-10-24T17:17:24.787Z,17.24
2022-10-24T17:20:13.935Z,17.29
2022-10-24T17:23:06.431Z,17.34
2022-10-24T17:25:55.869Z,17.42
2022-10-24T17:28:45.480Z,17.31
2022-10-24T17:31:34.155Z,17.29
2022-10-24T17:34:23.431Z,17.25
2022-10-24T17:37:21.599Z,17.15
2022-10-24T17:40:16.787Z,17.15
2022-10-24T17:43:06.845Z,17.16
2022-10-24T17:45:57.048Z,17.13
2022-10-24T17:48:45.671Z,16.98
2022-10-24T17:51:37.475Z,16.89
2022-10-24T17:54:25.944Z,16.77
2022-10-24T17:57:16.009Z,16.49
2022-10-24T18:00:04.977Z,16.37
2022-10-24T18:02:54.299Z,16.27
2022-10-24T18:05:45.683Z,16.17
2022-10-24T18:08:35.397Z,16.04
2022-10-24T18:11:24.112Z,16.03
2022-10-24T18:14:14.557Z,15.95
2022-10-24T18:17:03.009Z,15.88
2022-10-24T18:19:51.560Z,15.74
2022-10-24T18:22:40.256Z,15.64
2022-10-24T18:25:29.576Z,15.60
2022-10-24T18:28:18.262Z,15.61
2022-10-24T18:31:09.830Z,15.50
2022-10-24T18:34:06.081Z,15.50
2022-10-24T18:36:57.420Z,15.43
2022-10-24T18:39:46.306Z,15.48
2022-10-24T18:42:39.193Z,15.51
2022-10-24T18:45:29.178Z,15.42
2022-10-24T18:48:20.656Z,15.42
2022-10-24T18:51:20.439Z,15.26
2022-10-24T18:54:14.903Z,15.25
2022-10-24T18:57:04.054Z,15.30
2022-10-24T18:59:53.177Z,15.18
2022-10-24T19:02:49.519Z,15.22
2022-10-24T19:05:44.150Z,15.22
2022-10-24T19:08:33.157Z,15.28
2022-10-24T19:11:24.239Z,15.20
2022-10-24T19:14:14.915Z,15.21
2022-10-24T19:17:03.714Z,15.18
2022-10-24T19:19:53.688Z,15.09
2022-10-24T19:22:43.854Z,15.11
2022-10-24T19:25:32.649Z,15.11
2022-10-24T19:28:21.390Z,15.18
2022-10-24T19:31:12.441Z,15.00
2022-10-24T19:34:01.391Z,15.16
2022-10-24T19:36:49.860Z,15.19
2022-10-24T19:39:39.765Z,15.21
2022-10-24T19:42:28.354Z,15.21
2022-10-24T19:45:19.277Z,15.27
2022-10-24T19:48:12.231Z,15.43
2022-10-24T19:51:03.278Z,15.49
2022-10-24T19:53:52.548Z,15.19
2022-10-24T19:56:42.350Z,15.40
2022-10-24T19:59:33.858Z,15.38
2022-10-24T20:02:22.867Z,15.38
2022-10-24T20:05:11.341Z,15.46
2022-10-24T20:08:00.035Z,15.41
2022-10-24T20:10:52.390Z,15.35
2022-10-24T20:13:42.541Z,15.23
2022-10-24T20:16:32.081Z,15.24
2022-10-24T20:19:20.903Z,15.26
2022-10-24T20:22:09.752Z,15.24
2022-10-24T20:24:58.325Z,15.15
2022-10-24T20:27:48.886Z,15.22
2022-10-24T20:30:41.634Z,14.72
2022-10-24T20:33:30.092Z,15.14
2022-10-24T20:36:20.624Z,15.12
2022-10-24T20:39:09.651Z,15.06
2022-10-24T20:41:58.144Z,14.83
2022-10-24T20:44:46.564Z,14.98
2022-10-24T20:47:36.669Z,14.93
2022-10-24T20:50:25.088Z,14.93
2022-10-24T20:53:13.658Z,14.88
2022-10-24T20:56:06.333Z,14.78
2022-10-24T20:58:56.041Z,14.74
2022-10-24T21:01:44.704Z,14.63
2022-10-24T21:04:34.571Z,14.60
2022-10-24T21:07:22.953Z,14.51
2022-10-24T21:10:11.396Z,14.53
2022-10-24T21:12:59.801Z,14.40
2022-10-24T21:15:48.358Z,14.28
2022-10-24T21:18:37.546Z,14.30
2022-10-24T21:21:27.915Z,13.88
2022-10-24T21:24:17.848Z,14.06
2022-10-24T21:27:06.313Z,14.00
2022-10-24T21:29:54.710Z,13.88
2022-10-24T21:32:43.174Z,13.84
2022-10-24T21:35:31.763Z,13.76
2022-10-24T21:38:21.504Z,13.71
2022-10-24T21:41:11.167Z,13.64
2022-10-24T21:43:59.634Z,13.60
2022-10-24T21:46:48.109Z,13.50
2022-10-24T21:49:36.576Z,13.33
2022-10-24T21:52:25.105Z,13.27
2022-10-24T21:55:14.912Z,13.20
2022-10-24T21:58:03.318Z,13.13
2022-10-24T22:00:51.763Z,13.04
2022-10-24T22:03:40.659Z,12.98
2022-10-24T22:06:31.074Z,13.01
2022-10-24T22:09:23.425Z,13.11
2022-10-24T22:12:13.254Z,13.03
2022-10-24T22:15:01.734Z,12.96
2022-10-24T22:17:50.507Z,12.87
2022-10-24T22:20:40.153Z,12.80
2022-10-24T22:23:29.162Z,12.65
2022-10-24T22:26:17.570Z,12.78
2022-10-24T22:29:08.725Z,12.82
2022-10-24T22:31:57.837Z,12.63
2022-10-24T22:34:46.756Z,12.84
2022-10-24T22:37:35.238Z,12.81
2022-10-24T22:40:26.784Z,12.78
2022-10-24T22:43:15.927Z,12.64
2022-10-24T22:46:14.770Z,12.54
2022-10-24T22:49:07.652Z,12.49
2022-10-24T22:51:56.636Z,12.43
2022-10-24T22:54:45.732Z,12.49
2022-10-24T22:57:37.051Z,12.45
2022-10-24T23:00:26.280Z,12.46
2022-10-24T23:03:23.362Z,12.38
2022-10-24T23:06:15.713Z,12.41
2022-10-24T23:09:04.642Z,12.18
2022-10-24T23:11:54.022Z,12.32
2022-10-24T23:14:43.112Z,12.34
2022-10-24T23:17:32.725Z,12.27
2022-10-24T23:20:29.542Z,12.24
2022-10-24T23:23:29.573Z,12.22
2022-10-24T23:26:27.135Z,12.22
2022-10-24T23:29:20.220Z,12.22
2022-10-24T23:32:13.848Z,12.20
2022-10-24T23:35:02.825Z,12.11
2022-10-24T23:37:54.115Z,12.10
2022-10-24T23:40:42.975Z,12.13
2022-10-24T23:43:32.040Z,11.90
2022-10-24T23:46:26.235Z,11.99
2022-10-24T23:49:24.087Z,12.03
2022-10-24T23:52:16.946Z,12.06
2022-10-24T23:55:09.653Z,12.03
2022-10-24T23:57:58.113Z,12.10
